sensor_id;sensor_type;location;lat;lon;timestamp;temperature;humidity
31729;DHT22;18309;43.658;1.312;2024-03-23T00:55:03;17.20;99.90
31729;DHT22;18309;43.658;1.312;2024-03-23T00:57:29;17.20;99.90
31729;DHT22;18309;43.658;1.312;2024-03-23T00:59:54;17.20;99.90
31729;DHT22;18309;43.658;1.312;2024-03-23T01:02:20;17.10;99.90
31729;DHT22;18309;43.658;1.312;2024-03-23T01:04:46;17.10;99.90
31729;DHT22;18309;43.658;1.312;2024-03-23T01:07:11;17.10;99.90
31729;DHT22;18309;43.658;1.312;2024-03-23T01:09:37;17.10;99.90
31729;DHT22;18309;43.658;1.312;2024-03-23T01:12:04;17.00;99.90
31729;DHT22;18309;43.658;1.312;2024-03-23T01:14:30;17.10;99.90
31729;DHT22;18309;43.658;1.312;2024-03-23T01:16:56;17.00;99.90
31729;DHT22;18309;43.658;1.312;2024-03-23T01:19:21;17.00;99.90
31729;DHT22;18309;43.658;1.312;2024-03-23T01:21:47;17.00;99.90
31729;DHT22;18309;43.658;1.312;2024-03-23T01:24:14;17.00;99.90
31729;DHT22;18309;43.658;1.312;2024-03-23T01:26:40;16.90;99.90
31729;DHT22;18309;43.658;1.312;2024-03-23T01:29:05;16.90;99.90
31729;DHT22;18309;43.658;1.312;2024-03-23T01:31:31;16.90;99.90
31729;DHT22;18309;43.658;1.312;2024-03-23T01:33:57;16.90;99.90
31729;DHT22;18309;43.658;1.312;2024-03-23T01:36:24;16.80;99.90
31729;DHT22;18309;43.658;1.312;2024-03-23T01:38:50;16.80;99.90
31729;DHT22;18309;43.658;1.312;2024-03-23T01:41:17;16.80;99.90
31729;DHT22;18309;43.658;1.312;2024-03-23T01:43:43;16.70;99.90
31729;DHT22;18309;43.658;1.312;2024-03-23T01:46:09;16.70;99.90
31729;DHT22;18309;43.658;1.312;2024-03-23T01:48:34;16.70;99.90
31729;DHT22;18309;43.658;1.312;2024-03-23T01:51:00;16.70;99.90
31729;DHT22;18309;43.658;1.312;2024-03-23T01:53:26;16.60;99.90
31729;DHT22;18309;43.658;1.312;2024-03-23T01:55:52;16.70;99.90
31729;DHT22;18309;43.658;1.312;2024-03-23T01:58:17;16.60;99.90
31729;DHT22;18309;43.658;1.312;2024-03-23T02:00:43;16.60;99.90
31729;DHT22;18309;43.658;1.312;2024-03-23T02:03:25;16.60;99.90
31729;DHT22;18309;43.658;1.312;2024-03-23T02:05:51;16.60;99.90
31729;DHT22;18309;43.658;1.312;2024-03-23T02:08:22;16.60;99.90
31729;DHT22;18309;43.658;1.312;2024-03-23T02:10:51;16.50;99.90
31729;DHT22;18309;43.658;1.312;2024-03-23T02:13:20;16.60;99.90
31729;DHT22;18309;43.658;1.312;2024-03-23T02:15:46;16.50;99.90
31729;DHT22;18309;43.658;1.312;2024-03-23T02:18:12;16.50;99.90
31729;DHT22;18309;43.658;1.312;2024-03-23T02:20:38;16.40;99.90
31729;DHT22;18309;43.658;1.312;2024-03-23T02:23:16;16.30;99.90
31729;DHT22;18309;43.658;1.312;2024-03-23T02:25:43;16.30;99.90
31729;DHT22;18309;43.658;1.312;2024-03-23T02:28:09;16.30;99.90
31729;DHT22;18309;43.658;1.312;2024-03-23T02:30:35;16.10;99.90
31729;DHT22;18309;43.658;1.312;2024-03-23T02:33:00;16.10;99.90
31729;DHT22;18309;43.658;1.312;2024-03-23T02:35:26;16.10;99.90
31729;DHT22;18309;43.658;1.312;2024-03-23T02:37:52;16.00;99.90
31729;DHT22;18309;43.658;1.312;2024-03-23T02:40:19;15.90;99.90
31729;DHT22;18309;43.658;1.312;2024-03-23T02:42:45;15.90;99.90
31729;DHT22;18309;43.658;1.312;2024-03-23T02:45:10;15.90;99.90
31729;DHT22;18309;43.658;1.312;2024-03-23T02:47:36;15.80;99.90
31729;DHT22;18309;43.658;1.312;2024-03-23T02:50:02;15.80;99.90
31729;DHT22;18309;43.658;1.312;2024-03-23T02:52:28;15.70;99.90
31729;DHT22;18309;43.658;1.312;2024-03-23T02:54:53;15.70;99.90
31729;DHT22;18309;43.658;1.312;2024-03-23T02:57:19;15.50;99.90
31729;DHT22;18309;43.658;1.312;2024-03-23T02:59:45;15.50;99.90
31729;DHT22;18309;43.658;1.312;2024-03-23T03:02:12;15.50;99.90
31729;DHT22;18309;43.658;1.312;2024-03-23T03:04:38;15.50;99.90
31729;DHT22;18309;43.658;1.312;2024-03-23T03:07:04;15.40;99.90
31729;DHT22;18309;43.658;1.312;2024-03-23T03:09:30;15.40;99.90
31729;DHT22;18309;43.658;1.312;2024-03-23T03:11:55;15.40;99.90
31729;DHT22;18309;43.658;1.312;2024-03-23T03:14:21;15.30;99.90
31729;DHT22;18309;43.658;1.312;2024-03-23T03:16:47;15.30;99.90
31729;DHT22;18309;43.658;1.312;2024-03-23T03:19:12;15.20;99.90
31729;DHT22;18309;43.658;1.312;2024-03-23T03:21:38;15.10;99.90
31729;DHT22;18309;43.658;1.312;2024-03-23T03:24:06;15.20;99.90
31729;DHT22;18309;43.658;1.312;2024-03-23T03:26:32;15.20;99.90
31729;DHT22;18309;43.658;1.312;2024-03-23T03:28:58;15.10;99.90
31729;DHT22;18309;43.658;1.312;2024-03-23T03:31:23;15.20;99.90
31729;DHT22;18309;43.658;1.312;2024-03-23T03:33:50;15.20;99.90
31729;DHT22;18309;43.658;1.312;2024-03-23T03:36:18;15.20;99.90
31729;DHT22;18309;43.658;1.312;2024-03-23T03:38:44;15.20;99.90
31729;DHT22;18309;43.658;1.312;2024-03-23T03:41:10;15.20;99.90
31729;DHT22;18309;43.658;1.312;2024-03-23T03:43:36;15.10;99.90
31729;DHT22;18309;43.658;1.312;2024-03-23T03:46:01;15.10;99.90
31729;DHT22;18309;43.658;1.312;2024-03-23T03:48:28;15.10;99.90
31729;DHT22;18309;43.658;1.312;2024-03-23T03:50:54;15.10;99.90
31729;DHT22;18309;43.658;1.312;2024-03-23T03:53:20;15.10;99.90
31729;DHT22;18309;43.658;1.312;2024-03-23T03:55:46;15.10;99.90
31729;DHT22;18309;43.658;1.312;2024-03-23T03:58:11;15.10;99.90
31729;DHT22;18309;43.658;1.312;2024-03-23T04:00:37;15.00;99.90
31729;DHT22;18309;43.658;1.312;2024-03-23T04:03:03;14.90;99.90
31729;DHT22;18309;43.658;1.312;2024-03-23T04:05:29;14.90;99.90
31729;DHT22;18309;43.658;1.312;2024-03-23T04:07:54;14.90;99.90
31729;DHT22;18309;43.658;1.312;2024-03-23T04:10:20;14.90;99.90
31729;DHT22;18309;43.658;1.312;2024-03-23T04:12:47;15.00;99.90
31729;DHT22;18309;43.658;1.312;2024-03-23T04:15:13;15.00;99.90
31729;DHT22;18309;43.658;1.312;2024-03-23T04:17:39;15.00;99.90
31729;DHT22;18309;43.658;1.312;2024-03-23T04:20:07;15.00;99.90
31729;DHT22;18309;43.658;1.312;2024-03-23T04:22:37;15.00;99.90
31729;DHT22;18309;43.658;1.312;2024-03-23T04:25:03;14.90;99.90
31729;DHT22;18309;43.658;1.312;2024-03-23T04:27:38;14.90;99.90
31729;DHT22;18309;43.658;1.312;2024-03-23T04:30:05;14.80;99.90
31729;DHT22;18309;43.658;1.312;2024-03-23T04:32:36;14.70;99.90
31729;DHT22;18309;43.658;1.312;2024-03-23T04:35:01;14.70;99.90
31729;DHT22;18309;43.658;1.312;2024-03-23T04:37:33;14.70;99.90
31729;DHT22;18309;43.658;1.312;2024-03-23T04:40:03;14.70;99.90
31729;DHT22;18309;43.658;1.312;2024-03-23T04:42:29;14.70;99.90
31729;DHT22;18309;43.658;1.312;2024-03-23T04:44:56;14.70;99.90
31729;DHT22;18309;43.658;1.312;2024-03-23T04:47:21;14.60;99.90
31729;DHT22;18309;43.658;1.312;2024-03-23T04:49:48;14.50;99.90
31729;DHT22;18309;43.658;1.312;2024-03-23T04:52:14;14.50;99.90
31729;DHT22;18309;43.658;1.312;2024-03-23T04:54:41;14.50;99.90
31729;DHT22;18309;43.658;1.312;2024-03-23T04:57:07;14.50;99.90
31729;DHT22;18309;43.658;1.312;2024-03-23T04:59:33;14.60;99.90
31729;DHT22;18309;43.658;1.312;2024-03-23T05:01:59;14.50;99.90
31729;DHT22;18309;43.658;1.312;2024-03-23T05:04:28;14.50;99.90
31729;DHT22;18309;43.658;1.312;2024-03-23T05:06:54;14.60;99.90
31729;DHT22;18309;43.658;1.312;2024-03-23T05:09:19;14.50;99.90
31729;DHT22;18309;43.658;1.312;2024-03-23T05:11:45;14.40;99.90
31729;DHT22;18309;43.658;1.312;2024-03-23T05:14:14;14.50;99.90
31729;DHT22;18309;43.658;1.312;2024-03-23T05:16:39;14.40;99.90
31729;DHT22;18309;43.658;1.312;2024-03-23T05:19:06;14.40;99.90
31729;DHT22;18309;43.658;1.312;2024-03-23T05:21:31;14.40;99.90
31729;DHT22;18309;43.658;1.312;2024-03-23T05:23:57;14.40;99.90
31729;DHT22;18309;43.658;1.312;2024-03-23T05:26:24;14.30;99.90
31729;DHT22;18309;43.658;1.312;2024-03-23T05:28:50;14.30;99.90
31729;DHT22;18309;43.658;1.312;2024-03-23T05:31:26;14.30;99.90
31729;DHT22;18309;43.658;1.312;2024-03-23T05:33:52;14.30;99.90
31729;DHT22;18309;43.658;1.312;2024-03-23T05:36:18;14.20;99.90
31729;DHT22;18309;43.658;1.312;2024-03-23T05:38:44;14.30;99.90
31729;DHT22;18309;43.658;1.312;2024-03-23T05:41:10;14.30;99.90
31729;DHT22;18309;43.658;1.312;2024-03-23T05:43:35;14.30;99.90
31729;DHT22;18309;43.658;1.312;2024-03-23T05:46:01;14.20;99.90
31729;DHT22;18309;43.658;1.312;2024-03-23T05:48:28;14.20;99.90
31729;DHT22;18309;43.658;1.312;2024-03-23T05:50:56;14.20;99.90
31729;DHT22;18309;43.658;1.312;2024-03-23T05:53:22;14.30;99.90
31729;DHT22;18309;43.658;1.312;2024-03-23T05:55:49;14.20;99.90
31729;DHT22;18309;43.658;1.312;2024-03-23T05:58:16;14.20;99.90
31729;DHT22;18309;43.658;1.312;2024-03-23T06:00:42;14.10;99.90
31729;DHT22;18309;43.658;1.312;2024-03-23T06:03:08;14.10;99.90
31729;DHT22;18309;43.658;1.312;2024-03-23T06:05:34;14.20;99.90
31729;DHT22;18309;43.658;1.312;2024-03-23T06:08:00;14.20;99.90
31729;DHT22;18309;43.658;1.312;2024-03-23T06:10:25;14.20;99.90
31729;DHT22;18309;43.658;1.312;2024-03-23T06:12:51;14.10;99.90
31729;DHT22;18309;43.658;1.312;2024-03-23T06:15:19;14.10;99.90
31729;DHT22;18309;43.658;1.312;2024-03-23T06:17:45;14.00;99.90
31729;DHT22;18309;43.658;1.312;2024-03-23T06:20:12;14.10;99.90
31729;DHT22;18309;43.658;1.312;2024-03-23T06:22:38;14.10;99.90
31729;DHT22;18309;43.658;1.312;2024-03-23T06:25:04;14.10;99.90
31729;DHT22;18309;43.658;1.312;2024-03-23T06:27:30;14.10;99.90
31729;DHT22;18309;43.658;1.312;2024-03-23T06:29:57;14.00;99.90
31729;DHT22;18309;43.658;1.312;2024-03-23T06:32:23;14.00;99.90
31729;DHT22;18309;43.658;1.312;2024-03-23T06:34:49;14.00;99.90
31729;DHT22;18309;43.658;1.312;2024-03-23T06:37:14;14.00;99.90
31729;DHT22;18309;43.658;1.312;2024-03-23T06:39:40;14.00;99.90
31729;DHT22;18309;43.658;1.312;2024-03-23T06:42:06;13.90;99.90
31729;DHT22;18309;43.658;1.312;2024-03-23T06:44:31;14.00;99.90
31729;DHT22;18309;43.658;1.312;2024-03-23T06:46:57;13.90;99.90
31729;DHT22;18309;43.658;1.312;2024-03-23T06:49:23;13.80;99.90
31729;DHT22;18309;43.658;1.312;2024-03-23T06:51:49;13.80;99.90
31729;DHT22;18309;43.658;1.312;2024-03-23T06:54:16;13.80;99.90
31729;DHT22;18309;43.658;1.312;2024-03-23T06:56:44;13.80;99.90
31729;DHT22;18309;43.658;1.312;2024-03-23T06:59:09;13.70;99.90
31729;DHT22;18309;43.658;1.312;2024-03-23T07:01:35;13.80;99.90
31729;DHT22;18309;43.658;1.312;2024-03-23T07:04:01;13.80;99.90
31729;DHT22;18309;43.658;1.312;2024-03-23T07:06:26;13.80;99.90
31729;DHT22;18309;43.658;1.312;2024-03-23T07:08:52;13.70;99.90
31729;DHT22;18309;43.658;1.312;2024-03-23T07:11:22;13.70;99.90
31729;DHT22;18309;43.658;1.312;2024-03-23T07:13:50;13.60;99.90
31729;DHT22;18309;43.658;1.312;2024-03-23T07:16:16;13.60;99.90
31729;DHT22;18309;43.658;1.312;2024-03-23T07:18:42;13.60;99.90
31729;DHT22;18309;43.658;1.312;2024-03-23T07:21:08;13.60;99.90
31729;DHT22;18309;43.658;1.312;2024-03-23T07:23:34;13.50;99.90
31729;DHT22;18309;43.658;1.312;2024-03-23T07:26:04;13.60;99.90
31729;DHT22;18309;43.658;1.312;2024-03-23T07:28:31;13.50;99.90
31729;DHT22;18309;43.658;1.312;2024-03-23T07:31:08;13.40;99.90
31729;DHT22;18309;43.658;1.312;2024-03-23T07:33:35;13.40;99.90
31729;DHT22;18309;43.658;1.312;2024-03-23T07:36:01;13.30;99.90
31729;DHT22;18309;43.658;1.312;2024-03-23T07:38:28;13.30;99.90
31729;DHT22;18309;43.658;1.312;2024-03-23T07:41:07;13.30;99.90
31729;DHT22;18309;43.658;1.312;2024-03-23T07:43:33;13.20;99.90
31729;DHT22;18309;43.658;1.312;2024-03-23T07:45:59;13.20;99.90
31729;DHT22;18309;43.658;1.312;2024-03-23T07:48:25;13.20;99.90
31729;DHT22;18309;43.658;1.312;2024-03-23T07:51:09;13.20;99.90
31729;DHT22;18309;43.658;1.312;2024-03-23T07:53:37;13.20;99.90
31729;DHT22;18309;43.658;1.312;2024-03-23T07:58:29;13.10;99.90
31729;DHT22;18309;43.658;1.312;2024-03-23T08:00:56;12.40;99.90
31729;DHT22;18309;43.658;1.312;2024-03-23T08:03:22;12.00;99.90
31729;DHT22;18309;43.658;1.312;2024-03-23T08:05:48;11.80;99.90
31729;DHT22;18309;43.658;1.312;2024-03-23T08:08:14;11.60;99.90
31729;DHT22;18309;43.658;1.312;2024-03-23T08:10:52;11.60;99.90
31729;DHT22;18309;43.658;1.312;2024-03-23T08:13:19;11.30;99.90
31729;DHT22;18309;43.658;1.312;2024-03-23T08:15:45;11.40;99.90
31729;DHT22;18309;43.658;1.312;2024-03-23T08:18:12;11.20;99.90
31729;DHT22;18309;43.658;1.312;2024-03-23T08:20:39;11.20;99.90
31729;DHT22;18309;43.658;1.312;2024-03-23T08:23:07;10.70;99.90
31729;DHT22;18309;43.658;1.312;2024-03-23T08:25:33;10.80;99.90
31729;DHT22;18309;43.658;1.312;2024-03-23T08:27:59;10.70;99.90
31729;DHT22;18309;43.658;1.312;2024-03-23T08:30:25;10.60;99.90
31729;DHT22;18309;43.658;1.312;2024-03-23T08:32:51;10.70;99.90
31729;DHT22;18309;43.658;1.312;2024-03-23T08:35:17;10.70;99.90
31729;DHT22;18309;43.658;1.312;2024-03-23T08:37:43;10.80;99.90
31729;DHT22;18309;43.658;1.312;2024-03-23T08:40:09;10.90;99.90
31729;DHT22;18309;43.658;1.312;2024-03-23T08:42:35;10.80;99.90
31729;DHT22;18309;43.658;1.312;2024-03-23T08:45:01;10.80;99.90
31729;DHT22;18309;43.658;1.312;2024-03-23T08:47:27;10.60;99.90
31729;DHT22;18309;43.658;1.312;2024-03-23T08:49:52;10.60;99.90
31729;DHT22;18309;43.658;1.312;2024-03-23T09:02:39;11.00;99.90
31729;DHT22;18309;43.658;1.312;2024-03-23T09:05:05;11.00;99.90
31729;DHT22;18309;43.658;1.312;2024-03-23T09:07:31;11.00;99.90
31729;DHT22;18309;43.658;1.312;2024-03-23T09:09:57;10.80;99.90
31729;DHT22;18309;43.658;1.312;2024-03-23T09:12:23;10.90;99.90
31729;DHT22;18309;43.658;1.312;2024-03-23T09:14:49;11.00;99.90
31729;DHT22;18309;43.658;1.312;2024-03-23T09:17:15;11.10;99.90
31729;DHT22;18309;43.658;1.312;2024-03-23T09:19:41;11.20;99.90
31729;DHT22;18309;43.658;1.312;2024-03-23T09:22:07;11.20;99.90
31729;DHT22;18309;43.658;1.312;2024-03-23T09:24:32;11.40;99.90
31729;DHT22;18309;43.658;1.312;2024-03-23T09:26:58;11.40;99.90
31729;DHT22;18309;43.658;1.312;2024-03-23T09:29:23;11.40;99.90
31729;DHT22;18309;43.658;1.312;2024-03-23T09:31:49;11.50;99.90
31729;DHT22;18309;43.658;1.312;2024-03-23T09:34:15;11.50;99.90
31729;DHT22;18309;43.658;1.312;2024-03-23T09:36:40;11.50;99.90
31729;DHT22;18309;43.658;1.312;2024-03-23T09:39:07;11.60;99.90
31729;DHT22;18309;43.658;1.312;2024-03-23T09:41:35;11.60;99.90
31729;DHT22;18309;43.658;1.312;2024-03-23T09:44:01;11.60;99.90
31729;DHT22;18309;43.658;1.312;2024-03-23T09:46:27;11.70;99.90
31729;DHT22;18309;43.658;1.312;2024-03-23T09:48:55;11.70;99.90
31729;DHT22;18309;43.658;1.312;2024-03-23T09:51:21;11.70;98.90
31729;DHT22;18309;43.658;1.312;2024-03-23T09:53:49;11.60;98.20
31729;DHT22;18309;43.658;1.312;2024-03-23T09:56:15;11.80;99.10
31729;DHT22;18309;43.658;1.312;2024-03-23T09:58:42;11.80;98.50
31729;DHT22;18309;43.658;1.312;2024-03-23T10:01:09;11.80;98.30
31729;DHT22;18309;43.658;1.312;2024-03-23T10:03:44;11.80;98.80
31729;DHT22;18309;43.658;1.312;2024-03-23T10:06:11;11.80;97.70
31729;DHT22;18309;43.658;1.312;2024-03-23T10:08:36;11.80;98.20
31729;DHT22;18309;43.658;1.312;2024-03-23T10:11:20;11.90;98.70
31729;DHT22;18309;43.658;1.312;2024-03-23T10:13:47;12.00;98.50
31729;DHT22;18309;43.658;1.312;2024-03-23T10:16:21;12.10;98.90
31729;DHT22;18309;43.658;1.312;2024-03-23T10:18:47;12.10;98.50
31729;DHT22;18309;43.658;1.312;2024-03-23T10:21:15;12.00;98.40
31729;DHT22;18309;43.658;1.312;2024-03-23T10:23:42;12.20;98.60
31729;DHT22;18309;43.658;1.312;2024-03-23T10:29:01;12.30;98.00
31729;DHT22;18309;43.658;1.312;2024-03-23T10:31:31;12.40;97.50
31729;DHT22;18309;43.658;1.312;2024-03-23T10:33:57;12.40;98.10
31729;DHT22;18309;43.658;1.312;2024-03-23T10:36:24;12.50;97.80
31729;DHT22;18309;43.658;1.312;2024-03-23T10:38:54;12.50;96.80
31729;DHT22;18309;43.658;1.312;2024-03-23T10:41:20;12.50;96.60
31729;DHT22;18309;43.658;1.312;2024-03-23T10:43:47;12.20;95.50
31729;DHT22;18309;43.658;1.312;2024-03-23T10:46:13;12.40;95.90
31729;DHT22;18309;43.658;1.312;2024-03-23T10:48:40;12.50;95.90
31729;DHT22;18309;43.658;1.312;2024-03-23T10:51:10;12.70;96.30
31729;DHT22;18309;43.658;1.312;2024-03-23T10:53:35;12.80;94.90
31729;DHT22;18309;43.658;1.312;2024-03-23T10:56:03;12.70;95.00
31729;DHT22;18309;43.658;1.312;2024-03-23T10:58:45;12.70;95.10
31729;DHT22;18309;43.658;1.312;2024-03-23T11:01:12;12.80;94.90
31729;DHT22;18309;43.658;1.312;2024-03-23T11:03:39;12.90;94.20
31729;DHT22;18309;43.658;1.312;2024-03-23T11:06:10;12.90;93.90
31729;DHT22;18309;43.658;1.312;2024-03-23T11:08:39;12.90;95.00
31729;DHT22;18309;43.658;1.312;2024-03-23T11:11:27;13.00;94.50
31729;DHT22;18309;43.658;1.312;2024-03-23T11:13:54;13.00;94.00
31729;DHT22;18309;43.658;1.312;2024-03-23T11:16:27;13.00;93.90
31729;DHT22;18309;43.658;1.312;2024-03-23T11:19:37;13.10;93.40
31729;DHT22;18309;43.658;1.312;2024-03-23T11:22:03;13.10;92.90
31729;DHT22;18309;43.658;1.312;2024-03-23T11:24:30;13.20;92.90
31729;DHT22;18309;43.658;1.312;2024-03-23T11:26:56;13.20;92.70
31729;DHT22;18309;43.658;1.312;2024-03-23T11:29:26;13.30;93.40
31729;DHT22;18309;43.658;1.312;2024-03-23T11:31:52;13.40;92.90
31729;DHT22;18309;43.658;1.312;2024-03-23T11:34:22;13.40;92.00
31729;DHT22;18309;43.658;1.312;2024-03-23T11:36:48;13.50;92.70
31729;DHT22;18309;43.658;1.312;2024-03-23T11:39:17;13.60;92.10
31729;DHT22;18309;43.658;1.312;2024-03-23T11:41:51;13.50;91.50
31729;DHT22;18309;43.658;1.312;2024-03-23T11:44:21;13.40;91.00
31729;DHT22;18309;43.658;1.312;2024-03-23T11:46:49;13.40;91.40
31729;DHT22;18309;43.658;1.312;2024-03-23T11:49:29;13.40;91.10
31729;DHT22;18309;43.658;1.312;2024-03-23T11:51:56;13.50;90.70
31729;DHT22;18309;43.658;1.312;2024-03-23T11:56:58;13.60;89.80
31729;DHT22;18309;43.658;1.312;2024-03-23T11:59:50;13.60;89.80
31729;DHT22;18309;43.658;1.312;2024-03-23T12:02:18;13.80;89.70
31729;DHT22;18309;43.658;1.312;2024-03-23T12:04:44;13.90;88.20
31729;DHT22;18309;43.658;1.312;2024-03-23T12:07:13;13.90;88.10
31729;DHT22;18309;43.658;1.312;2024-03-23T12:09:40;13.70;86.60
31729;DHT22;18309;43.658;1.312;2024-03-23T12:12:16;13.80;90.50
31729;DHT22;18309;43.658;1.312;2024-03-23T12:14:43;14.00;89.30
31729;DHT22;18309;43.658;1.312;2024-03-23T12:17:13;13.90;87.30
31729;DHT22;18309;43.658;1.312;2024-03-23T12:19:40;13.90;89.10
31729;DHT22;18309;43.658;1.312;2024-03-23T12:22:09;13.90;89.20
31729;DHT22;18309;43.658;1.312;2024-03-23T12:24:36;14.00;88.60
31729;DHT22;18309;43.658;1.312;2024-03-23T12:27:03;14.00;88.50
31729;DHT22;18309;43.658;1.312;2024-03-23T12:29:34;14.00;89.70
31729;DHT22;18309;43.658;1.312;2024-03-23T12:32:01;13.90;88.90
31729;DHT22;18309;43.658;1.312;2024-03-23T12:34:27;14.00;89.70
31729;DHT22;18309;43.658;1.312;2024-03-23T12:36:53;14.10;90.20
31729;DHT22;18309;43.658;1.312;2024-03-23T12:39:19;14.00;87.40
31729;DHT22;18309;43.658;1.312;2024-03-23T12:41:49;14.10;90.00
31729;DHT22;18309;43.658;1.312;2024-03-23T12:44:15;14.10;89.70
31729;DHT22;18309;43.658;1.312;2024-03-23T12:46:44;14.20;90.00
31729;DHT22;18309;43.658;1.312;2024-03-23T12:49:10;14.30;90.00
31729;DHT22;18309;43.658;1.312;2024-03-23T12:51:36;14.40;89.60
31729;DHT22;18309;43.658;1.312;2024-03-23T12:56:30;14.50;90.20
31729;DHT22;18309;43.658;1.312;2024-03-23T12:58:56;14.60;90.40
31729;DHT22;18309;43.658;1.312;2024-03-23T13:01:26;14.60;89.10
31729;DHT22;18309;43.658;1.312;2024-03-23T13:03:52;14.60;90.10
31729;DHT22;18309;43.658;1.312;2024-03-23T13:06:18;14.70;89.70
31729;DHT22;18309;43.658;1.312;2024-03-23T13:08:45;15.00;89.60
31729;DHT22;18309;43.658;1.312;2024-03-23T13:11:11;15.20;89.90
31729;DHT22;18309;43.658;1.312;2024-03-23T13:13:38;15.10;88.90
31729;DHT22;18309;43.658;1.312;2024-03-23T13:16:04;15.10;90.00
31729;DHT22;18309;43.658;1.312;2024-03-23T13:18:31;15.10;89.10
31729;DHT22;18309;43.658;1.312;2024-03-23T13:20:57;15.20;90.10
31729;DHT22;18309;43.658;1.312;2024-03-23T13:23:23;15.50;90.60
31729;DHT22;18309;43.658;1.312;2024-03-23T13:25:52;15.40;88.30
31729;DHT22;18309;43.658;1.312;2024-03-23T13:28:19;15.40;89.40
31729;DHT22;18309;43.658;1.312;2024-03-23T13:30:52;15.60;89.00
31729;DHT22;18309;43.658;1.312;2024-03-23T13:33:18;15.50;88.80
31729;DHT22;18309;43.658;1.312;2024-03-23T13:35:53;15.30;89.80
31729;DHT22;18309;43.658;1.312;2024-03-23T13:38:20;15.70;90.10
31729;DHT22;18309;43.658;1.312;2024-03-23T13:40:53;15.60;89.80
31729;DHT22;18309;43.658;1.312;2024-03-23T13:43:20;15.90;88.20
31729;DHT22;18309;43.658;1.312;2024-03-23T13:45:51;15.60;87.70
31729;DHT22;18309;43.658;1.312;2024-03-23T13:48:21;15.70;89.70
31729;DHT22;18309;43.658;1.312;2024-03-23T13:50:47;16.00;90.10
31729;DHT22;18309;43.658;1.312;2024-03-23T13:53:14;15.90;89.10
31729;DHT22;18309;43.658;1.312;2024-03-23T13:55:48;15.90;89.70
31729;DHT22;18309;43.658;1.312;2024-03-23T13:58:15;15.70;89.10
31729;DHT22;18309;43.658;1.312;2024-03-23T14:00:41;16.00;89.60
31729;DHT22;18309;43.658;1.312;2024-03-23T14:03:10;16.20;89.80
31729;DHT22;18309;43.658;1.312;2024-03-23T14:05:37;16.20;89.20
31729;DHT22;18309;43.658;1.312;2024-03-23T14:08:09;16.30;88.50
31729;DHT22;18309;43.658;1.312;2024-03-23T14:10:36;16.70;86.10
31729;DHT22;18309;43.658;1.312;2024-03-23T14:13:02;17.70;84.50
31729;DHT22;18309;43.658;1.312;2024-03-23T14:15:31;18.00;84.20
31729;DHT22;18309;43.658;1.312;2024-03-23T14:17:57;17.90;82.50
31729;DHT22;18309;43.658;1.312;2024-03-23T14:20:23;17.50;84.20
31729;DHT22;18309;43.658;1.312;2024-03-23T14:22:49;17.50;86.40
31729;DHT22;18309;43.658;1.312;2024-03-23T14:25:16;17.20;85.60
31729;DHT22;18309;43.658;1.312;2024-03-23T14:27:44;17.20;86.30
31729;DHT22;18309;43.658;1.312;2024-03-23T14:30:10;17.40;84.90
31729;DHT22;18309;43.658;1.312;2024-03-23T14:32:36;17.60;86.10
31729;DHT22;18309;43.658;1.312;2024-03-23T14:35:03;17.40;84.50
31729;DHT22;18309;43.658;1.312;2024-03-23T14:37:29;17.30;84.40
31729;DHT22;18309;43.658;1.312;2024-03-23T14:39:58;17.30;85.40
31729;DHT22;18309;43.658;1.312;2024-03-23T14:42:24;17.20;85.00
31729;DHT22;18309;43.658;1.312;2024-03-23T14:44:51;17.30;84.90
31729;DHT22;18309;43.658;1.312;2024-03-23T14:47:18;17.40;84.90
31729;DHT22;18309;43.658;1.312;2024-03-23T14:49:44;17.40;84.70
31729;DHT22;18309;43.658;1.312;2024-03-23T14:52:14;17.30;84.90
31729;DHT22;18309;43.658;1.312;2024-03-23T14:54:39;17.20;83.80
31729;DHT22;18309;43.658;1.312;2024-03-23T14:57:05;17.20;83.20
31729;DHT22;18309;43.658;1.312;2024-03-23T14:59:32;17.50;84.40
31729;DHT22;18309;43.658;1.312;2024-03-23T15:01:58;17.50;82.60
31729;DHT22;18309;43.658;1.312;2024-03-23T15:04:24;17.20;83.50
31729;DHT22;18309;43.658;1.312;2024-03-23T15:06:49;17.40;84.20
31729;DHT22;18309;43.658;1.312;2024-03-23T15:09:16;17.70;82.50
31729;DHT22;18309;43.658;1.312;2024-03-23T15:11:41;17.80;83.00
31729;DHT22;18309;43.658;1.312;2024-03-23T15:14:07;17.70;81.90
31729;DHT22;18309;43.658;1.312;2024-03-23T15:16:33;18.00;82.60
31729;DHT22;18309;43.658;1.312;2024-03-23T15:18:59;17.90;80.70
31729;DHT22;18309;43.658;1.312;2024-03-23T15:21:25;17.90;81.00
31729;DHT22;18309;43.658;1.312;2024-03-23T15:23:51;18.00;81.60
31729;DHT22;18309;43.658;1.312;2024-03-23T15:26:16;17.90;81.70
31729;DHT22;18309;43.658;1.312;2024-03-23T15:28:42;17.80;81.60
31729;DHT22;18309;43.658;1.312;2024-03-23T15:31:23;18.00;80.90
31729;DHT22;18309;43.658;1.312;2024-03-23T15:33:49;17.70;80.90
31729;DHT22;18309;43.658;1.312;2024-03-23T15:36:15;17.90;80.50
31729;DHT22;18309;43.658;1.312;2024-03-23T15:38:41;18.00;81.00
31729;DHT22;18309;43.658;1.312;2024-03-23T15:41:08;17.90;80.70
31729;DHT22;18309;43.658;1.312;2024-03-23T15:43:34;18.00;79.80
31729;DHT22;18309;43.658;1.312;2024-03-23T15:46:02;17.60;81.00
31729;DHT22;18309;43.658;1.312;2024-03-23T15:48:28;17.90;80.20
31729;DHT22;18309;43.658;1.312;2024-03-23T15:50:59;18.00;79.00
31729;DHT22;18309;43.658;1.312;2024-03-23T15:53:25;18.00;80.10
31729;DHT22;18309;43.658;1.312;2024-03-23T15:58:23;17.90;79.90
31729;DHT22;18309;43.658;1.312;2024-03-23T16:01:02;17.50;80.20
31729;DHT22;18309;43.658;1.312;2024-03-23T16:03:29;17.60;80.60
31729;DHT22;18309;43.658;1.312;2024-03-23T16:06:03;17.60;78.90
31729;DHT22;18309;43.658;1.312;2024-03-23T16:08:29;17.70;78.90
31729;DHT22;18309;43.658;1.312;2024-03-23T16:11:03;17.60;79.60
31729;DHT22;18309;43.658;1.312;2024-03-23T16:13:29;17.30;78.80
31729;DHT22;18309;43.658;1.312;2024-03-23T16:15:56;17.30;79.10
31729;DHT22;18309;43.658;1.312;2024-03-23T16:18:23;17.40;79.30
31729;DHT22;18309;43.658;1.312;2024-03-23T16:21:00;17.60;79.70
31729;DHT22;18309;43.658;1.312;2024-03-23T16:23:26;17.50;79.20
31729;DHT22;18309;43.658;1.312;2024-03-23T16:25:54;17.70;80.40
31729;DHT22;18309;43.658;1.312;2024-03-23T16:28:24;17.50;80.10
31729;DHT22;18309;43.658;1.312;2024-03-23T16:30:58;17.40;79.30
31729;DHT22;18309;43.658;1.312;2024-03-23T16:33:24;17.60;80.50
31729;DHT22;18309;43.658;1.312;2024-03-23T16:36:04;17.20;79.00
31729;DHT22;18309;43.658;1.312;2024-03-23T16:38:35;17.20;80.30
31729;DHT22;18309;43.658;1.312;2024-03-23T16:41:05;17.00;81.60
31729;DHT22;18309;43.658;1.312;2024-03-23T16:43:32;17.10;81.80
31729;DHT22;18309;43.658;1.312;2024-03-23T16:46:05;17.00;82.80
31729;DHT22;18309;43.658;1.312;2024-03-23T16:48:32;17.00;82.40